Time;durP1;ratioP1;P1;durP2;ratioP2;P2;SDS_P1;SDS_P2;PMS_P1;PMS_P2;Temp;Humidity;BMP_temperature;BMP_pressure;BME280_temperature;BME280_humidity;BME280_pressure;Samples;Min_cycle;Max_cycle;Signal;HPM_P1;HPM_P2
2022/11/02 00:01:39;;;;;;;20.60;17.70;;;;;;;14.48;71.86;100722.38;110227;1259;21923;-77
2022/11/02 00:04:08;;;;;;;23.30;18.00;;;;;;;14.45;71.89;100723.05;110054;1251;23047;-78
2022/11/02 00:06:36;;;;;;;20.10;17.80;;;;;;;14.46;71.82;100720.90;110163;1257;21928;-78
2022/11/02 00:09:04;;;;;;;22.10;16.50;;;;;;;14.44;71.74;100719.41;110272;1258;23661;-77
2022/11/02 00:11:31;;;;;;;23.40;16.70;;;;;;;14.45;71.78;100724.29;110278;1260;23591;-78
2022/11/02 00:13:59;;;;;;;18.30;16.40;;;;;;;14.45;71.91;100727.25;110225;1261;23041;-78
2022/11/02 00:16:30;;;;;;;18.30;15.30;;;;;;;14.44;71.83;100731.50;109939;1261;23017;-78
2022/11/02 00:19:00;;;;;;;16.90;15.10;;;;;;;14.44;71.89;100731.51;109677;1263;22167;-78
2022/11/02 00:21:27;;;;;;;17.00;15.20;;;;;;;14.45;71.92;100732.88;109946;1260;23160;-77
2022/11/02 00:23:57;;;;;;;18.40;15.80;;;;;;;14.44;71.85;100729.06;110053;1260;21930;-78
2022/11/02 00:26:27;;;;;;;16.70;14.60;;;;;;;14.43;71.82;100730.17;110007;1263;23761;-78
2022/11/02 00:28:54;;;;;;;19.40;15.20;;;;;;;14.41;71.80;100731.48;110054;1262;22887;-78
2022/11/02 00:31:22;;;;;;;16.90;14.90;;;;;;;14.39;71.77;100732.41;109934;1260;21993;-78
2022/11/02 00:33:51;;;;;;;15.40;13.00;;;;;;;14.38;71.71;100734.77;110294;1256;21903;-77
2022/11/02 00:36:19;;;;;;;16.90;14.20;;;;;;;14.34;71.59;100731.13;110718;1255;23609;-78
2022/11/02 00:38:47;;;;;;;16.90;14.10;;;;;;;14.30;71.52;100730.58;110505;1255;21927;-77
2022/11/02 00:41:18;;;;;;;16.00;14.30;;;;;;;14.27;71.51;100732.66;111270;1247;21924;-78
2022/11/02 00:43:46;;;;;;;19.10;15.70;;;;;;;14.22;71.48;100731.32;111393;1247;21919;-77
2022/11/02 00:46:15;;;;;;;16.10;14.40;;;;;;;14.16;71.43;100730.89;111322;1246;21908;-77
2022/11/02 00:48:43;;;;;;;16.00;14.40;;;;;;;14.12;71.46;100731.08;111388;1245;22211;-77
2022/11/02 00:51:11;;;;;;;17.60;15.70;;;;;;;14.06;71.44;100725.74;111241;1245;21950;-77
2022/11/02 00:53:42;;;;;;;18.20;15.40;;;;;;;14.01;71.57;100727.20;111484;1246;21884;-77
2022/11/02 00:56:10;;;;;;;19.40;16.10;;;;;;;13.99;71.79;100732.73;111298;1247;22000;-78
2022/11/02 00:58:38;;;;;;;19.20;15.30;;;;;;;13.98;71.77;100733.84;111325;1246;23635;-77
2022/11/02 01:01:07;;;;;;;17.70;15.70;;;;;;;13.96;71.81;100740.72;111605;1241;21936;-76
2022/11/02 01:03:36;;;;;;;20.10;16.30;;;;;;;13.95;71.88;100739.91;111123;1247;21952;-76
2022/11/02 01:06:13;;;;;;;16.90;15.00;;;;;;;13.94;71.97;100737.14;111267;1247;23664;-77
2022/11/02 01:08:42;;;;;;;20.90;15.90;;;;;;;13.92;71.91;100739.02;111397;1245;23039;-77
2022/11/02 01:11:23;;;;;;;18.80;16.80;;;;;;;13.90;71.94;100737.88;111699;1246;21922;-80
2022/11/02 01:13:57;;;;;;;18.20;14.90;;;;;;;13.87;71.95;100736.58;111769;1247;22820;-80
2022/11/02 01:17:11;;;;;;;18.80;16.90;;;;;;;13.84;71.84;100735.52;111589;1245;21944;-79
2022/11/02 01:19:52;;;;;;;19.10;16.90;;;;;;;13.77;71.82;100735.99;111619;1247;22980;-77
2022/11/02 01:22:20;;;;;;;21.10;19.00;;;;;;;13.75;71.68;100738.36;111396;1246;21916;-77
2022/11/02 01:24:48;;;;;;;19.80;17.30;;;;;;;13.70;71.76;100740.70;111352;1245;21902;-77
2022/11/02 01:27:18;;;;;;;21.80;18.30;;;;;;;13.67;71.89;100746.41;111440;1245;21919;-77
2022/11/02 01:29:46;;;;;;;19.90;17.80;;;;;;;13.64;71.95;100743.22;110728;1251;21927;-77
2022/11/02 01:32:18;;;;;;;19.70;17.60;;;;;;;13.60;71.89;100741.47;110141;1260;23596;-77
2022/11/02 01:34:46;;;;;;;20.80;18.60;;;;;;;13.57;72.10;100740.73;109623;1263;23622;-77
2022/11/02 01:37:16;;;;;;;21.30;18.60;;;;;;;13.54;72.24;100740.89;109653;1264;23675;-76
2022/11/02 01:39:43;;;;;;;22.50;19.10;;;;;;;13.51;72.15;100742.77;109668;1263;23024;-76
2022/11/02 01:42:21;;;;;;;21.50;18.50;;;;;;;13.47;72.20;100742.08;109664;1265;22700;-76
2022/11/02 01:44:50;;;;;;;19.10;17.00;;;;;;;13.44;72.12;100740.09;109566;1265;21935;-76
2022/11/02 01:47:30;;;;;;;20.90;18.20;;;;;;;13.40;72.12;100741.65;109486;1256;23594;-76
2022/11/02 01:50:07;;;;;;;19.70;17.30;;;;;;;13.37;72.28;100744.05;110436;1253;21912;-76
2022/11/02 01:52:38;;;;;;;19.60;16.10;;;;;;;13.34;72.38;100744.52;110914;1247;22824;-77
2022/11/02 01:55:20;;;;;;;19.20;17.40;;;;;;;13.31;72.34;100739.25;111423;1247;21921;-76
2022/11/02 01:57:56;;;;;;;22.30;17.40;;;;;;;13.24;72.18;100737.23;111285;1247;21977;-76
2022/11/02 02:00:24;;;;;;;21.60;18.20;;;;;;;13.17;72.22;100739.09;110802;1245;23743;-77
2022/11/02 02:03:05;;;;;;;19.00;17.00;;;;;;;13.12;72.21;100742.80;110087;1259;21957;-77
2022/11/02 02:05:40;;;;;;;23.60;18.10;;;;;;;13.06;72.16;100741.30;110208;1260;23031;-77
2022/11/02 02:08:13;;;;;;;19.80;16.90;;;;;;;13.00;72.14;100739.46;110409;1260;22347;-77
2022/11/02 02:10:41;;;;;;;18.80;16.50;;;;;;;12.96;72.25;100740.17;110349;1260;22981;-78
2022/11/02 02:13:11;;;;;;;20.00;17.00;;;;;;;12.91;72.27;100745.45;110361;1255;22823;-77
2022/11/02 02:16:00;;;;;;;22.30;18.20;;;;;;;12.84;72.32;100747.80;110236;1259;22994;-77
2022/11/02 02:18:49;;;;;;;19.00;17.10;;;;;;;12.77;72.34;100754.20;110294;1260;22701;-77
2022/11/02 02:22:03;;;;;;;20.60;18.00;;;;;;;12.70;72.43;100758.69;110515;1252;21923;-78
2022/11/02 02:25:00;;;;;;;29.70;19.80;;;;;;;12.62;72.70;100750.80;110712;1247;21932;-77
2022/11/02 02:28:22;;;;;;;19.60;17.70;;;;;;;12.56;72.81;100753.47;111354;1246;23729;-77
2022/11/02 02:30:55;;;;;;;20.20;18.00;;;;;;;12.48;72.84;100755.19;110763;1253;21959;-77
2022/11/02 02:33:42;;;;;;;21.00;18.10;;;;;;;12.44;72.89;100755.68;111074;1251;21927;-77
2022/11/02 02:36:38;;;;;;;20.90;18.40;;;;;;;12.40;72.99;100752.71;110991;1252;23609;-76
2022/11/02 02:39:14;;;;;;;19.60;17.80;;;;;;;12.35;73.04;100751.52;110880;1252;23596;-76
2022/11/02 02:41:53;;;;;;;22.40;20.00;;;;;;;12.31;73.13;100754.79;110549;1256;21921;-77
2022/11/02 02:44:26;;;;;;;21.40;17.80;;;;;;;12.28;73.17;100757.19;110068;1261;21921;-77
2022/11/02 02:47:01;;;;;;;19.20;17.20;;;;;;;12.25;73.25;100754.33;110100;1262;23072;-77
2022/11/02 02:49:42;;;;;;;23.00;18.90;;;;;;;12.21;73.37;100756.91;109716;1261;22692;-77
2022/11/02 02:52:16;;;;;;;21.60;19.30;;;;;;;12.17;73.43;100762.85;109936;1261;21901;-76
2022/11/02 02:54:46;;;;;;;20.30;18.40;;;;;;;12.15;73.59;100765.02;109859;1261;22004;-77
2022/11/02 02:57:19;;;;;;;21.60;19.40;;;;;;;12.14;73.77;100769.58;110075;1260;23180;-77
2022/11/02 02:59:48;;;;;;;20.80;18.80;;;;;;;12.13;73.93;100769.77;110146;1258;21953;-78
2022/11/02 03:02:32;;;;;;;25.20;19.50;;;;;;;12.14;73.95;100773.25;110416;1256;23010;-78
2022/11/02 03:05:33;;;;;;;21.50;18.90;;;;;;;12.12;74.04;100774.88;110529;1257;23563;-77
2022/11/02 03:08:09;;;;;;;20.70;18.60;;;;;;;12.11;74.22;100774.91;110825;1245;21939;-77
2022/11/02 03:10:53;;;;;;;21.90;19.90;;;;;;;12.13;74.27;100776.58;111270;1244;21913;-79
2022/11/02 03:13:48;;;;;;;23.90;19.80;;;;;;;12.15;74.40;100779.50;111543;1248;24280;-76
2022/11/02 03:16:43;;;;;;;22.10;19.80;;;;;;;12.15;74.43;100780.55;110893;1254;21995;-76
2022/11/02 03:19:43;;;;;;;22.30;19.70;;;;;;;12.17;74.56;100783.78;110829;1253;21917;-76
2022/11/02 03:22:29;;;;;;;21.70;19.50;;;;;;;12.16;74.51;100783.96;111000;1251;21955;-78
2022/11/02 03:25:11;;;;;;;24.40;20.80;;;;;;;12.14;74.33;100784.59;110967;1251;21971;-77
2022/11/02 03:27:57;;;;;;;20.30;18.20;;;;;;;12.14;74.37;100790.18;110946;1252;21917;-77
2022/11/02 03:30:32;;;;;;;21.50;19.30;;;;;;;12.08;74.23;100794.02;110716;1252;23584;-79
2022/11/02 03:33:34;;;;;;;23.70;20.00;;;;;;;12.06;74.12;100796.23;110748;1252;23376;-77
2022/11/02 03:36:14;;;;;;;22.20;19.50;;;;;;;12.01;74.16;100794.66;111413;1247;23755;-79
2022/11/02 03:38:53;;;;;;;21.60;18.60;;;;;;;11.97;74.14;100793.93;111188;1246;21929;-77
2022/11/02 03:41:24;;;;;;;29.10;19.70;;;;;;;11.93;74.10;100796.66;111612;1245;21920;-77
2022/11/02 03:44:05;;;;;;;22.50;20.20;;;;;;;11.91;74.21;100801.10;111387;1247;22923;-77
2022/11/02 03:46:37;;;;;;;23.70;20.70;;;;;;;11.88;74.20;100802.06;111148;1246;22842;-77
2022/11/02 03:49:11;;;;;;;27.90;22.00;;;;;;;11.86;74.28;100806.16;111444;1246;23632;-77
2022/11/02 03:51:44;;;;;;;24.80;20.10;;;;;;;11.84;74.28;100801.35;111380;1247;22692;-77
2022/11/02 03:54:50;;;;;;;23.40;21.10;;;;;;;11.78;74.17;100801.56;111336;1248;23752;-77
2022/11/02 03:57:26;;;;;;;22.40;20.00;;;;;;;11.71;74.29;100807.89;111594;1246;22996;-77
2022/11/02 04:00:10;;;;;;;24.50;20.90;;;;;;;11.68;74.34;100806.60;111336;1246;22269;-77
2022/11/02 04:02:46;;;;;;;25.40;20.50;;;;;;;11.64;74.33;100807.27;111492;1246;23806;-77
2022/11/02 04:05:17;;;;;;;22.10;19.80;;;;;;;11.60;74.42;100805.66;111207;1245;23065;-78
2022/11/02 04:14:36;;;;;;;22.10;19.90;;;;;;;11.55;74.47;100808.80;111444;1246;21941;-77
2022/11/02 04:16:14;;;;;;;33.70;24.10;;;;;;;11.47;74.49;100813.08;111417;1246;21925;-77
2022/11/02 04:21:31;;;;;;;26.30;22.80;;;;;;;11.38;74.32;100810.41;111451;1243;23804;-77
2022/11/02 04:26:46;;;;;;;23.40;21.00;;;;;;;11.31;74.43;100809.97;111423;1243;21930;-77
2022/11/02 04:29:17;;;;;;;26.90;20.50;;;;;;;11.28;74.38;100809.03;111434;1246;23560;-77
2022/11/02 04:31:45;;;;;;;23.50;20.80;;;;;;;11.24;74.40;100803.73;111170;1246;21993;-76
2022/11/02 04:34:14;;;;;;;23.30;21.00;;;;;;;11.21;74.37;100805.23;111414;1243;23651;-76
2022/11/02 04:36:43;;;;;;;23.80;20.60;;;;;;;11.19;74.38;100801.85;110802;1249;22974;-76
2022/11/02 04:39:14;;;;;;;24.80;20.70;;;;;;;11.16;74.47;100806.29;110836;1252;21917;-76
2022/11/02 04:41:45;;;;;;;24.00;21.70;;;;;;;11.13;74.53;100806.05;110809;1250;22157;-76
2022/11/02 04:44:23;;;;;;;25.50;22.80;;;;;;;11.10;74.53;100802.81;110554;1254;21919;-77
2022/11/02 04:47:05;;;;;;;30.20;25.70;;;;;;;11.06;74.56;100805.38;110425;1254;21986;-77
2022/11/02 04:49:34;;;;;;;31.50;24.30;;;;;;;11.05;74.62;100804.73;110587;1256;23656;-77
2022/11/02 04:52:06;;;;;;;28.00;24.90;;;;;;;11.01;74.55;100809.03;110414;1257;22062;-77
2022/11/02 04:54:34;;;;;;;32.40;25.10;;;;;;;10.98;74.53;100808.44;110591;1257;21927;-77
2022/11/02 04:57:05;;;;;;;34.30;24.70;;;;;;;10.94;74.49;100808.73;110386;1253;23045;-77
2022/11/02 04:59:33;;;;;;;27.00;24.20;;;;;;;10.91;74.49;100807.10;110563;1256;22128;-78
2022/11/02 05:02:01;;;;;;;26.20;23.50;;;;;;;10.88;74.49;100809.77;110601;1252;21923;-78
2022/11/02 05:04:29;;;;;;;25.60;22.90;;;;;;;10.86;74.56;100811.77;110603;1250;23923;-76
2022/11/02 05:06:57;;;;;;;27.20;22.30;;;;;;;10.85;74.66;100814.26;110772;1251;21934;-77
2022/11/02 05:09:36;;;;;;;30.50;24.20;;;;;;;10.83;74.69;100812.40;110909;1243;22554;-79
2022/11/02 05:12:07;;;;;;;26.00;23.20;;;;;;;10.81;74.76;100810.55;111345;1243;23014;-77
2022/11/02 05:14:37;;;;;;;24.70;22.10;;;;;;;10.79;74.84;100812.51;111621;1242;23114;-78
2022/11/02 05:17:06;;;;;;;27.60;22.60;;;;;;;10.77;74.80;100815.36;111359;1244;21918;-77
2022/11/02 05:19:35;;;;;;;24.40;21.90;;;;;;;10.75;74.75;100814.23;111153;1247;23561;-78
2022/11/02 05:22:05;;;;;;;24.80;22.40;;;;;;;10.72;74.79;100815.50;111231;1247;22383;-78
2022/11/02 05:24:33;;;;;;;24.20;21.20;;;;;;;10.71;74.84;100820.42;111392;1247;22179;-78
2022/11/02 05:27:04;;;;;;;23.00;20.30;;;;;;;10.69;74.87;100821.51;111380;1246;21916;-78
2022/11/02 05:29:33;;;;;;;23.70;21.30;;;;;;;10.68;74.89;100818.07;111374;1243;23026;-83
2022/11/02 05:32:01;;;;;;;26.60;23.70;;;;;;;10.68;75.04;100821.94;111694;1243;21904;-83
2022/11/02 05:34:29;;;;;;;29.90;22.70;;;;;;;10.68;75.03;100824.16;111639;1242;23066;-81
2022/11/02 05:36:57;;;;;;;26.30;21.80;;;;;;;10.69;75.18;100823.45;111659;1245;23666;-78
2022/11/02 05:39:26;;;;;;;27.20;23.00;;;;;;;10.70;75.21;100824.95;111435;1242;21916;-82
2022/11/02 05:41:54;;;;;;;25.80;23.10;;;;;;;10.72;75.30;100826.48;111498;1242;21913;-81
2022/11/02 05:44:21;;;;;;;26.10;21.60;;;;;;;10.72;75.27;100825.08;111600;1242;22657;-80
2022/11/02 05:46:49;;;;;;;25.70;21.20;;;;;;;10.73;75.14;100827.14;111439;1243;22016;-79
2022/11/02 05:49:17;;;;;;;23.30;20.80;;;;;;;10.72;75.06;100829.80;111076;1251;21917;-81
2022/11/02 05:51:45;;;;;;;25.30;20.60;;;;;;;10.71;75.08;100830.35;111257;1248;21934;-80
2022/11/02 05:54:15;;;;;;;29.80;22.40;;;;;;;10.70;75.08;100835.60;111027;1249;22370;-84
2022/11/02 05:56:43;;;;;;;27.80;22.70;;;;;;;10.68;75.03;100832.34;111055;1249;21974;-81
2022/11/02 05:59:12;;;;;;;29.50;21.50;;;;;;;10.64;75.02;100827.42;110909;1248;22589;-79
2022/11/02 06:01:39;;;;;;;22.60;20.20;;;;;;;10.67;74.99;100830.83;110627;1251;21946;-80
2022/11/02 06:04:12;;;;;;;25.80;20.90;;;;;;;10.66;74.96;100827.89;110827;1252;21919;-82
2022/11/02 06:06:45;;;;;;;30.00;21.60;;;;;;;10.65;74.96;100827.58;110907;1251;24379;-80
2022/11/02 06:09:17;;;;;;;27.80;21.50;;;;;;;10.63;74.96;100828.84;110447;1253;21910;-79
2022/11/02 06:11:47;;;;;;;27.90;21.10;;;;;;;10.62;75.00;100826.09;110766;1251;21916;-77
2022/11/02 06:14:14;;;;;;;26.80;21.40;;;;;;;10.61;74.97;100823.51;110720;1248;22092;-78
2022/11/02 06:16:42;;;;;;;31.90;23.90;;;;;;;10.61;75.07;100823.34;110865;1250;21920;-78
2022/11/02 06:19:13;;;;;;;31.20;23.60;;;;;;;10.62;75.14;100825.75;110396;1256;23885;-79
2022/11/02 06:21:44;;;;;;;29.30;25.80;;;;;;;10.64;75.27;100828.12;110395;1257;21937;-76
2022/11/02 06:24:35;;;;;;;36.70;29.00;;;;;;;10.67;75.34;100836.20;110519;1254;23580;-78
2022/11/02 06:27:11;;;;;;;26.30;22.80;;;;;;;10.67;75.27;100839.54;110674;1248;23062;-79
2022/11/02 06:30:35;;;;;;;30.90;23.30;;;;;;;10.65;75.30;100844.27;110779;1251;21932;-81
2022/11/02 06:33:28;;;;;;;28.30;24.20;;;;;;;10.64;75.49;100841.33;111146;1248;21909;-78
2022/11/02 06:35:56;;;;;;;30.40;27.20;;;;;;;10.69;75.48;100846.42;110718;1250;21930;-79
2022/11/02 06:38:27;;;;;;;29.70;26.10;;;;;;;10.74;75.64;100843.48;111234;1243;21988;-79
2022/11/02 06:41:11;;;;;;;27.40;24.40;;;;;;;10.79;75.72;100840.70;111335;1243;21916;-80
2022/11/02 06:43:40;;;;;;;36.10;30.00;;;;;;;10.82;75.63;100840.12;110897;1249;22407;-80
2022/11/02 06:46:10;;;;;;;30.80;25.50;;;;;;;10.84;75.58;100838.64;110889;1249;22692;-81
2022/11/02 06:48:44;;;;;;;31.20;27.80;;;;;;;10.86;75.59;100840.85;110956;1248;22869;-80
2022/11/02 06:51:28;;;;;;;75.30;63.30;;;;;;;10.89;75.66;100847.02;111163;1250;24274;-82
2022/11/02 06:53:58;;;;;;;64.70;53.80;;;;;;;10.93;75.65;100854.20;110927;1248;23649;-79
2022/11/02 06:56:43;;;;;;;28.50;25.70;;;;;;;11.00;75.61;100861.31;110972;1251;21939;-79
2022/11/02 06:59:11;;;;;;;28.40;24.40;;;;;;;11.04;75.43;100866.92;110731;1248;21908;-80
2022/11/02 07:01:51;;;;;;;27.80;24.00;;;;;;;11.06;75.43;100864.08;111037;1243;23673;-78
2022/11/02 07:04:25;;;;;;;25.80;23.10;;;;;;;11.09;75.36;100863.29;111404;1243;23013;-77
2022/11/02 07:07:00;;;;;;;28.20;22.90;;;;;;;11.13;75.28;100870.99;111237;1243;22806;-79
2022/11/02 07:09:39;;;;;;;27.50;23.90;;;;;;;11.17;75.32;100867.91;111175;1242;21917;-79
2022/11/02 07:12:13;;;;;;;35.30;27.50;;;;;;;11.24;75.45;100868.55;111342;1242;23701;-79
2022/11/02 07:14:54;;;;;;;52.60;41.40;;;;;;;11.32;75.37;100868.11;111265;1248;23695;-79
2022/11/02 07:17:31;;;;;;;69.10;55.20;;;;;;;11.40;75.29;100870.66;111044;1245;22322;-78
2022/11/02 07:20:23;;;;;;;32.60;28.10;;;;;;;11.50;75.27;100871.02;110838;1248;22024;-80
2022/11/02 07:23:18;;;;;;;26.50;23.20;;;;;;;11.59;75.14;100873.15;111273;1246;21940;-79
2022/11/02 07:25:51;;;;;;;30.30;21.90;;;;;;;11.68;74.96;100872.35;110988;1246;22030;-79
2022/11/02 07:28:43;;;;;;;30.90;25.60;;;;;;;11.75;74.75;100868.80;111124;1248;21921;-79
2022/11/02 07:31:34;;;;;;;32.30;29.00;;;;;;;11.79;74.47;100868.66;111108;1248;23580;-79
2022/11/02 07:34:07;;;;;;;32.30;28.90;;;;;;;11.84;74.22;100868.65;111164;1242;21911;-79
2022/11/02 07:36:43;;;;;;;25.90;23.20;;;;;;;11.89;73.94;100867.27;111366;1242;23590;-79
2022/11/02 07:39:11;;;;;;;23.20;20.70;;;;;;;11.94;73.88;100868.30;111537;1242;23050;-79
2022/11/02 07:41:38;;;;;;;24.70;21.00;;;;;;;12.02;73.82;100871.38;111159;1242;23049;-82
2022/11/02 07:44:36;;;;;;;25.60;21.10;;;;;;;12.10;73.72;100873.35;111720;1242;22012;-82
2022/11/02 07:47:13;;;;;;;21.40;18.40;;;;;;;12.19;73.69;100869.88;111703;1242;21938;-81
2022/11/02 07:49:47;;;;;;;22.80;19.10;;;;;;;12.31;73.52;100873.46;111309;1247;22827;-81
2022/11/02 07:52:23;;;;;;;22.60;19.30;;;;;;;12.44;73.19;100875.94;110575;1254;21926;-82
2022/11/02 07:55:02;;;;;;;21.20;18.60;;;;;;;12.54;73.18;100874.88;110406;1254;21920;-83
2022/11/02 07:57:53;;;;;;;20.50;18.40;;;;;;;12.67;72.88;100876.30;110506;1253;21944;-84
2022/11/02 08:00:37;;;;;;;24.50;18.10;;;;;;;12.79;72.42;100882.50;110606;1254;24167;-83
2022/11/02 08:03:23;;;;;;;26.30;18.30;;;;;;;12.89;72.12;100881.05;110792;1254;21955;-83
2022/11/02 08:06:17;;;;;;;29.50;17.70;;;;;;;12.98;71.67;100880.71;110456;1254;23589;-82
2022/11/02 08:08:57;;;;;;;27.70;15.50;;;;;;;13.04;71.16;100880.83;111106;1248;21936;-82
2022/11/02 08:11:49;;;;;;;;;;;;;;;13.05;70.78;100882.49;111625;1242;22693;-86
2022/11/02 08:15:06;;;;;;;19.30;15.80;;;;;;;13.01;70.82;100881.10;111310;1248;21931;-84
2022/11/02 08:17:41;;;;;;;21.50;15.90;;;;;;;13.02;70.48;100884.76;110638;1254;22199;-84
2022/11/02 08:20:44;;;;;;;22.70;15.30;;;;;;;13.04;70.21;100883.60;110870;1254;21998;-84
2022/11/02 08:23:20;;;;;;;16.80;15.00;;;;;;;13.06;69.94;100886.34;110699;1254;22873;-83
2022/11/02 08:25:54;;;;;;;19.10;15.00;;;;;;;13.09;69.83;100883.26;110670;1254;21969;-82
2022/11/02 08:28:34;;;;;;;;;;;;;;;13.11;69.61;100881.95;110101;1259;21924;-83
2022/11/02 08:31:18;;;;;;;21.50;15.30;;;;;;;13.08;70.14;100879.25;110050;1259;21928;-83
2022/11/02 08:33:47;;;;;;;15.20;13.40;;;;;;;13.18;70.26;100876.25;110696;1257;21966;-83
2022/11/02 08:36:18;;;;;;;16.40;12.40;;;;;;;13.33;70.00;100874.09;110938;1251;21911;-83
2022/11/02 08:38:54;;;;;;;17.40;12.80;;;;;;;13.42;69.50;100871.14;111095;1251;21933;-82
2022/11/02 08:41:38;;;;;;;13.90;12.30;;;;;;;13.46;69.02;100866.72;110641;1254;22384;-84
2022/11/02 08:44:08;;;;;;;16.10;13.40;;;;;;;13.52;68.91;100865.45;110023;1260;22905;-84
2022/11/02 08:46:44;;;;;;;16.20;11.10;;;;;;;13.60;68.81;100867.73;110021;1257;22182;-85
2022/11/02 08:49:17;;;;;;;15.60;10.50;;;;;;;13.66;68.35;100860.14;110589;1257;21958;-84
2022/11/02 08:51:49;;;;;;;14.70;10.20;;;;;;;13.71;68.01;100860.82;110183;1260;21954;-85
2022/11/02 08:54:24;;;;;;;15.60;11.50;;;;;;;13.72;67.84;100861.63;109709;1263;22867;-84
2022/11/02 08:56:54;;;;;;;11.90;9.90;;;;;;;13.76;67.56;100868.81;110168;1260;21939;-84
2022/11/02 08:59:29;;;;;;;17.30;10.50;;;;;;;13.79;67.33;100870.77;109981;1256;23022;-83
2022/11/02 09:02:19;;;;;;;13.70;10.30;;;;;;;13.83;67.18;100867.83;110499;1251;23049;-84
2022/11/02 09:05:04;;;;;;;14.10;10.20;;;;;;;13.86;67.04;100867.85;110991;1251;22011;-82
2022/11/02 09:07:32;;;;;;;;;;;;;;;13.87;66.75;100865.71;110768;1252;21925;-82
2022/11/02 09:10:03;;;;;;;11.80;9.30;;;;;;;13.77;66.80;100868.06;111232;1245;21912;-85
2022/11/02 09:12:38;;;;;;;12.60;10.50;;;;;;;13.78;66.56;100866.27;111526;1245;23594;-82
2022/11/02 09:15:17;;;;;;;19.80;13.70;;;;;;;13.81;66.50;100866.65;111390;1242;21916;-81
2022/11/02 09:17:49;;;;;;;14.80;12.00;;;;;;;13.88;66.47;100861.64;111635;1238;23564;-81
2022/11/02 09:20:47;;;;;;;15.90;9.80;;;;;;;13.94;66.31;100858.56;111537;1242;21906;-79
2022/11/02 09:23:21;;;;;;;15.00;11.00;;;;;;;14.00;66.02;100859.55;108342;1242;3693906;-79
2022/11/02 09:25:51;;;;;;;13.80;10.20;;;;;;;14.06;65.69;100852.98;111336;1242;21914;-79
2022/11/02 09:28:20;;;;;;;13.80;9.60;;;;;;;14.09;65.73;100851.63;111669;1242;22472;-78
2022/11/02 09:30:50;;;;;;;15.80;9.90;;;;;;;14.17;65.93;100845.31;111358;1241;21918;-79
2022/11/02 09:33:19;;;;;;;16.30;9.70;;;;;;;14.30;65.77;100849.63;111556;1243;21899;-79
2022/11/02 09:35:49;;;;;;;13.50;9.00;;;;;;;14.40;65.47;100856.34;111316;1242;22035;-78
2022/11/02 09:38:20;;;;;;;15.40;9.60;;;;;;;14.51;65.14;100858.50;111399;1242;21933;-79
2022/11/02 09:40:57;;;;;;;13.40;9.10;;;;;;;14.62;64.77;100859.05;111131;1242;21990;-77
2022/11/02 09:43:44;;;;;;;18.80;8.80;;;;;;;14.73;64.63;100854.16;111436;1242;21932;-78
2022/11/02 09:46:20;;;;;;;16.10;8.70;;;;;;;14.86;64.27;100853.36;111848;1242;23108;-80
2022/11/02 09:49:05;;;;;;;17.40;8.30;;;;;;;14.99;63.53;100853.99;111779;1242;21933;-79
2022/11/02 09:51:39;;;;;;;15.40;8.90;;;;;;;15.14;63.34;100854.30;111395;1241;21900;-80
2022/11/02 09:54:16;;;;;;;12.50;7.40;;;;;;;15.31;62.74;100856.80;111162;1242;23039;-78
2022/11/02 09:56:50;;;;;;;11.50;7.70;;;;;;;15.50;62.25;100855.33;111293;1242;21922;-79
2022/11/02 09:59:23;;;;;;;15.30;7.30;;;;;;;15.68;61.79;100852.32;110942;1243;23069;-78
2022/11/02 10:02:36;;;;;;;13.00;7.20;;;;;;;15.87;61.11;100851.91;110895;1241;22471;-79
2022/11/02 10:05:36;;;;;;;15.30;10.10;;;;;;;16.10;60.66;100858.09;111022;1243;21913;-78
2022/11/02 10:08:25;;;;;;;30.70;9.10;;;;;;;16.35;59.84;100859.73;110626;1248;23644;-79
2022/11/02 10:11:02;;;;;;;13.20;7.70;;;;;;;16.55;59.07;100860.55;110663;1253;21933;-79
2022/11/02 10:13:59;;;;;;;12.30;7.60;;;;;;;16.79;58.51;100858.77;110697;1253;23717;-78
2022/11/02 10:16:42;;;;;;;;;;;;;;;17.02;57.67;100858.54;110658;1254;23267;-78
2022/11/02 10:19:17;;;;;;;11.70;6.30;;;;;;;17.14;56.90;100858.05;110854;1248;23766;-78
2022/11/02 10:21:55;;;;;;;11.80;6.20;;;;;;;17.38;56.57;100855.24;110681;1248;22313;-78
2022/11/02 10:24:42;;;;;;;12.90;6.80;;;;;;;17.63;55.79;100849.71;110735;1248;21915;-78
2022/11/02 10:27:25;;;;;;;9.80;6.40;;;;;;;17.92;55.44;100847.69;110861;1248;22150;-79
2022/11/02 10:30:06;;;;;;;14.30;6.90;;;;;;;18.22;54.79;100849.70;110782;1248;22684;-80
2022/11/02 10:32:38;;;;;;;13.10;6.30;;;;;;;18.54;53.90;100849.11;111329;1242;22429;-79
2022/11/02 10:35:36;;;;;;;16.60;6.80;;;;;;;18.88;53.12;100848.58;111467;1242;23647;-78
2022/11/02 10:39:07;;;;;;;10.50;5.80;;;;;;;19.26;51.75;100844.14;111527;1242;23559;-79
2022/11/02 10:41:51;;;;;;;8.00;5.60;;;;;;;19.53;49.91;100847.30;111557;1242;22778;-78
2022/11/02 10:45:41;;;;;;;13.30;5.70;;;;;;;19.64;48.84;100848.13;111374;1239;21905;-78
2022/11/02 10:48:29;;;;;;;13.40;5.80;;;;;;;19.91;49.01;100848.82;111383;1242;23575;-78
2022/11/02 10:51:08;;;;;;;;;;;;;;;20.25;48.54;100843.98;111416;1242;24917;-79
2022/11/02 10:53:45;;;;;;;12.90;6.50;;;;;;;20.31;47.44;100844.20;111408;1242;22673;-79
2022/11/02 10:56:17;;;;;;;18.20;9.10;;;;;;;20.25;47.00;100842.21;111322;1242;21949;-79
2022/11/02 10:59:01;;;;;;;12.40;7.20;;;;;;;20.22;47.03;100843.98;111601;1242;24635;-79
2022/11/02 11:01:33;;;;;;;14.20;6.40;;;;;;;20.04;45.99;100847.77;111607;1242;23046;-78
2022/11/02 11:04:25;;;;;;;13.10;6.10;;;;;;;19.71;45.49;100851.07;111261;1242;22840;-79
2022/11/02 11:06:55;;;;;;;16.00;5.60;;;;;;;19.33;45.46;100849.05;110812;1239;23743;-78
2022/11/02 11:09:32;;;;;;;13.20;6.10;;;;;;;18.93;45.72;100850.23;110692;1248;21924;-79
2022/11/02 11:12:21;;;;;;;11.80;6.40;;;;;;;18.55;46.27;100850.69;110735;1248;21918;-79
2022/11/02 11:14:57;;;;;;;12.20;6.50;;;;;;;18.22;46.87;100852.91;110740;1248;23044;-79
2022/11/02 11:17:49;;;;;;;10.90;5.20;;;;;;;17.88;47.18;100852.30;110731;1250;21912;-80
2022/11/02 11:20:40;;;;;;;11.90;5.50;;;;;;;17.54;47.72;100852.73;110663;1251;21929;-79
2022/11/02 11:23:23;;;;;;;13.30;6.10;;;;;;;17.29;48.17;100851.92;110740;1248;23002;-78
2022/11/02 11:25:59;;;;;;;13.70;6.30;;;;;;;17.03;48.74;100850.23;110832;1246;24483;-78
2022/11/02 11:28:36;;;;;;;13.30;5.60;;;;;;;16.80;49.15;100845.16;110841;1248;22173;-78
2022/11/02 11:31:15;;;;;;;12.40;5.30;;;;;;;16.59;49.54;100841.90;110840;1248;21930;-80
2022/11/02 11:34:12;;;;;;;13.50;5.00;;;;;;;16.44;50.01;100842.23;110736;1248;22237;-78
2022/11/02 11:36:40;;;;;;;12.00;4.50;;;;;;;16.29;50.25;100841.79;111048;1248;23342;-78
2022/11/02 11:39:33;;;;;;;15.70;4.90;;;;;;;16.17;50.27;100834.70;110369;1253;21922;-78
2022/11/02 11:42:12;;;;;;;14.70;5.60;;;;;;;16.05;50.53;100831.67;110792;1253;22028;-79
2022/11/02 11:44:58;;;;;;;13.20;5.30;;;;;;;15.98;50.70;100827.27;110787;1249;23655;-77
2022/11/02 11:47:41;;;;;;;22.80;5.10;;;;;;;15.92;50.91;100828.48;110924;1248;22353;-79
2022/11/02 11:50:19;;;;;;;12.50;5.90;;;;;;;15.84;51.06;100823.79;110870;1248;22475;-79
2022/11/02 11:53:23;;;;;;;9.70;4.70;;;;;;;15.79;51.31;100823.20;110814;1248;24273;-79
2022/11/02 11:55:59;;;;;;;13.40;5.60;;;;;;;15.73;51.51;100821.55;110813;1243;21907;-79
2022/11/02 11:58:33;;;;;;;11.70;5.50;;;;;;;15.72;51.81;100817.08;111582;1242;22395;-79
2022/11/02 12:01:15;;;;;;;14.50;6.50;;;;;;;15.71;51.90;100813.61;111140;1242;23581;-79
2022/11/02 12:03:59;;;;;;;11.80;5.10;;;;;;;15.69;52.03;100809.83;111590;1242;23068;-80